sensor_id;sensor_type;location;lat;lon;timestamp;P1;durP1;ratioP1;P2;durP2;ratioP2
79570;SDS011;69034;49.444;7.758;2024-02-28T00:03:35;9.38;;;4.35;;
79570;SDS011;69034;49.444;7.758;2024-02-28T00:07:36;8.45;;;4.03;;
79570;SDS011;69034;49.444;7.758;2024-02-28T00:11:41;8.38;;;4.65;;
79570;SDS011;69034;49.444;7.758;2024-02-28T00:15:45;10.95;;;5.38;;
79570;SDS011;69034;49.444;7.758;2024-02-28T00:19:46;10.55;;;4.82;;
79570;SDS011;69034;49.444;7.758;2024-02-28T00:23:47;7.85;;;4.13;;
79570;SDS011;69034;49.444;7.758;2024-02-28T00:27:47;7.78;;;3.47;;
79570;SDS011;69034;49.444;7.758;2024-02-28T00:31:48;14.13;;;5.85;;
79570;SDS011;69034;49.444;7.758;2024-02-28T00:35:48;8.48;;;3.95;;
79570;SDS011;69034;49.444;7.758;2024-02-28T00:39:49;8.48;;;3.88;;
79570;SDS011;69034;49.444;7.758;2024-02-28T00:43:50;9.88;;;3.45;;
79570;SDS011;69034;49.444;7.758;2024-02-28T00:47:50;6.45;;;3.30;;
79570;SDS011;69034;49.444;7.758;2024-02-28T00:51:51;7.53;;;3.33;;
79570;SDS011;69034;49.444;7.758;2024-02-28T00:55:52;16.95;;;8.65;;
79570;SDS011;69034;49.444;7.758;2024-02-28T00:59:52;7.28;;;3.05;;
79570;SDS011;69034;49.444;7.758;2024-02-28T01:03:54;7.97;;;4.20;;
79570;SDS011;69034;49.444;7.758;2024-02-28T01:07:55;12.07;;;3.97;;
79570;SDS011;69034;49.444;7.758;2024-02-28T01:11:56;6.22;;;3.38;;
79570;SDS011;69034;49.444;7.758;2024-02-28T01:15:57;9.68;;;4.22;;
79570;SDS011;69034;49.444;7.758;2024-02-28T01:19:59;10.10;;;3.63;;
79570;SDS011;69034;49.444;7.758;2024-02-28T01:23:59;6.82;;;3.33;;
79570;SDS011;69034;49.444;7.758;2024-02-28T01:28:01;7.65;;;3.78;;
79570;SDS011;69034;49.444;7.758;2024-02-28T01:32:03;7.55;;;3.80;;
79570;SDS011;69034;49.444;7.758;2024-02-28T01:36:06;7.05;;;3.35;;
79570;SDS011;69034;49.444;7.758;2024-02-28T01:40:07;6.53;;;3.45;;
79570;SDS011;69034;49.444;7.758;2024-02-28T01:44:08;9.50;;;3.55;;
79570;SDS011;69034;49.444;7.758;2024-02-28T01:48:09;6.38;;;3.05;;
79570;SDS011;69034;49.444;7.758;2024-02-28T01:52:10;8.43;;;4.05;;
79570;SDS011;69034;49.444;7.758;2024-02-28T01:56:13;7.68;;;3.22;;
79570;SDS011;69034;49.444;7.758;2024-02-28T02:00:16;9.02;;;3.05;;
79570;SDS011;69034;49.444;7.758;2024-02-28T02:04:18;8.63;;;4.30;;
79570;SDS011;69034;49.444;7.758;2024-02-28T02:08:19;9.13;;;3.72;;
79570;SDS011;69034;49.444;7.758;2024-02-28T02:12:19;6.90;;;3.42;;
79570;SDS011;69034;49.444;7.758;2024-02-28T02:16:20;11.40;;;3.65;;
79570;SDS011;69034;49.444;7.758;2024-02-28T02:20:28;7.63;;;3.30;;
79570;SDS011;69034;49.444;7.758;2024-02-28T02:24:32;10.00;;;3.72;;
79570;SDS011;69034;49.444;7.758;2024-02-28T02:28:33;15.95;;;7.20;;
79570;SDS011;69034;49.444;7.758;2024-02-28T02:32:33;8.50;;;3.65;;
79570;SDS011;69034;49.444;7.758;2024-02-28T02:36:34;12.23;;;5.43;;
79570;SDS011;69034;49.444;7.758;2024-02-28T02:40:34;6.45;;;2.78;;
79570;SDS011;69034;49.444;7.758;2024-02-28T02:44:35;15.52;;;6.65;;
79570;SDS011;69034;49.444;7.758;2024-02-28T02:48:36;8.73;;;4.18;;
79570;SDS011;69034;49.444;7.758;2024-02-28T02:52:36;10.73;;;4.63;;
79570;SDS011;69034;49.444;7.758;2024-02-28T02:56:37;9.88;;;4.15;;
79570;SDS011;69034;49.444;7.758;2024-02-28T03:00:40;9.73;;;4.35;;
79570;SDS011;69034;49.444;7.758;2024-02-28T03:04:41;8.15;;;3.45;;
79570;SDS011;69034;49.444;7.758;2024-02-28T03:08:42;10.55;;;4.78;;
79570;SDS011;69034;49.444;7.758;2024-02-28T03:12:42;8.65;;;3.63;;
79570;SDS011;69034;49.444;7.758;2024-02-28T03:16:43;8.50;;;4.18;;
79570;SDS011;69034;49.444;7.758;2024-02-28T03:20:44;13.95;;;5.57;;
79570;SDS011;69034;49.444;7.758;2024-02-28T03:24:45;10.65;;;5.03;;
79570;SDS011;69034;49.444;7.758;2024-02-28T03:28:45;6.95;;;3.22;;
79570;SDS011;69034;49.444;7.758;2024-02-28T03:32:46;14.75;;;5.60;;
79570;SDS011;69034;49.444;7.758;2024-02-28T03:36:47;14.65;;;4.38;;
79570;SDS011;69034;49.444;7.758;2024-02-28T03:40:47;6.18;;;3.33;;
79570;SDS011;69034;49.444;7.758;2024-02-28T03:44:48;14.05;;;5.95;;
79570;SDS011;69034;49.444;7.758;2024-02-28T03:48:48;9.68;;;4.55;;
79570;SDS011;69034;49.444;7.758;2024-02-28T03:52:49;7.15;;;3.72;;
79570;SDS011;69034;49.444;7.758;2024-02-28T03:56:49;15.55;;;6.72;;
79570;SDS011;69034;49.444;7.758;2024-02-28T04:04:51;6.72;;;3.28;;
79570;SDS011;69034;49.444;7.758;2024-02-28T04:12:52;11.18;;;6.05;;
79570;SDS011;69034;49.444;7.758;2024-02-28T04:16:52;16.95;;;7.03;;
79570;SDS011;69034;49.444;7.758;2024-02-28T04:20:53;11.85;;;4.93;;
79570;SDS011;69034;49.444;7.758;2024-02-28T04:24:53;17.55;;;9.55;;
79570;SDS011;69034;49.444;7.758;2024-02-28T04:28:54;9.88;;;4.15;;
79570;SDS011;69034;49.444;7.758;2024-02-28T04:32:55;8.98;;;4.30;;
79570;SDS011;69034;49.444;7.758;2024-02-28T04:36:55;17.50;;;6.75;;
79570;SDS011;69034;49.444;7.758;2024-02-28T04:40:56;7.53;;;3.50;;
79570;SDS011;69034;49.444;7.758;2024-02-28T04:44:56;14.70;;;6.43;;
79570;SDS011;69034;49.444;7.758;2024-02-28T04:48:57;7.22;;;3.33;;
79570;SDS011;69034;49.444;7.758;2024-02-28T04:52:58;12.13;;;5.60;;
79570;SDS011;69034;49.444;7.758;2024-02-28T04:56:58;14.85;;;7.32;;
79570;SDS011;69034;49.444;7.758;2024-02-28T05:00:59;11.27;;;5.88;;
79570;SDS011;69034;49.444;7.758;2024-02-28T05:04:59;13.40;;;5.13;;
79570;SDS011;69034;49.444;7.758;2024-02-28T05:09:00;15.35;;;6.88;;
79570;SDS011;69034;49.444;7.758;2024-02-28T05:13:01;16.67;;;7.80;;
79570;SDS011;69034;49.444;7.758;2024-02-28T05:17:03;14.88;;;6.78;;
79570;SDS011;69034;49.444;7.758;2024-02-28T05:21:04;14.52;;;7.03;;
79570;SDS011;69034;49.444;7.758;2024-02-28T05:25:05;14.00;;;6.50;;
79570;SDS011;69034;49.444;7.758;2024-02-28T05:33:06;16.73;;;7.30;;
79570;SDS011;69034;49.444;7.758;2024-02-28T05:37:07;7.05;;;3.78;;
79570;SDS011;69034;49.444;7.758;2024-02-28T05:45:08;14.00;;;6.57;;
79570;SDS011;69034;49.444;7.758;2024-02-28T05:53:09;13.15;;;6.68;;
79570;SDS011;69034;49.444;7.758;2024-02-28T06:01:11;19.40;;;7.95;;
79570;SDS011;69034;49.444;7.758;2024-02-28T06:05:14;13.38;;;6.55;;
79570;SDS011;69034;49.444;7.758;2024-02-28T06:09:15;8.07;;;4.43;;
79570;SDS011;69034;49.444;7.758;2024-02-28T06:13:15;10.82;;;5.32;;
79570;SDS011;69034;49.444;7.758;2024-02-28T06:21:16;9.65;;;4.53;;
79570;SDS011;69034;49.444;7.758;2024-02-28T06:25:17;22.90;;;9.32;;
79570;SDS011;69034;49.444;7.758;2024-02-28T06:29:19;25.95;;;9.50;;
79570;SDS011;69034;49.444;7.758;2024-02-28T06:33:22;9.40;;;4.95;;
79570;SDS011;69034;49.444;7.758;2024-02-28T06:41:23;14.77;;;5.45;;
79570;SDS011;69034;49.444;7.758;2024-02-28T06:45:23;21.10;;;7.88;;
79570;SDS011;69034;49.444;7.758;2024-02-28T06:49:24;19.90;;;7.45;;
79570;SDS011;69034;49.444;7.758;2024-02-28T06:53:25;16.33;;;6.95;;
79570;SDS011;69034;49.444;7.758;2024-02-28T06:57:26;19.00;;;8.60;;
79570;SDS011;69034;49.444;7.758;2024-02-28T07:01:27;19.75;;;6.28;;
79570;SDS011;69034;49.444;7.758;2024-02-28T07:05:27;9.60;;;4.55;;
79570;SDS011;69034;49.444;7.758;2024-02-28T07:09:28;9.88;;;4.43;;
79570;SDS011;69034;49.444;7.758;2024-02-28T07:13:31;14.38;;;6.40;;
79570;SDS011;69034;49.444;7.758;2024-02-28T07:17:32;9.90;;;3.58;;
79570;SDS011;69034;49.444;7.758;2024-02-28T07:21:32;9.90;;;5.10;;
79570;SDS011;69034;49.444;7.758;2024-02-28T07:25:33;18.48;;;7.63;;
79570;SDS011;69034;49.444;7.758;2024-02-28T07:29:34;12.93;;;5.93;;
79570;SDS011;69034;49.444;7.758;2024-02-28T07:33:36;9.32;;;4.22;;
79570;SDS011;69034;49.444;7.758;2024-02-28T07:37:37;11.25;;;5.20;;
79570;SDS011;69034;49.444;7.758;2024-02-28T07:41:38;10.55;;;4.93;;
79570;SDS011;69034;49.444;7.758;2024-02-28T07:45:41;17.42;;;6.80;;
79570;SDS011;69034;49.444;7.758;2024-02-28T07:49:43;15.73;;;7.15;;
79570;SDS011;69034;49.444;7.758;2024-02-28T07:53:43;14.88;;;7.40;;
79570;SDS011;69034;49.444;7.758;2024-02-28T07:57:44;15.27;;;5.88;;
79570;SDS011;69034;49.444;7.758;2024-02-28T08:01:45;21.77;;;8.40;;
79570;SDS011;69034;49.444;7.758;2024-02-28T08:05:45;16.73;;;6.90;;
79570;SDS011;69034;49.444;7.758;2024-02-28T08:09:48;13.50;;;6.47;;
79570;SDS011;69034;49.444;7.758;2024-02-28T08:13:49;18.00;;;6.95;;
79570;SDS011;69034;49.444;7.758;2024-02-28T08:17:49;20.85;;;8.02;;
79570;SDS011;69034;49.444;7.758;2024-02-28T08:21:50;18.92;;;7.80;;
79570;SDS011;69034;49.444;7.758;2024-02-28T08:25:50;15.18;;;6.03;;
79570;SDS011;69034;49.444;7.758;2024-02-28T08:29:51;19.50;;;7.72;;
79570;SDS011;69034;49.444;7.758;2024-02-28T08:33:52;12.57;;;5.95;;
79570;SDS011;69034;49.444;7.758;2024-02-28T08:37:53;12.25;;;4.75;;
79570;SDS011;69034;49.444;7.758;2024-02-28T08:41:53;12.73;;;5.68;;
79570;SDS011;69034;49.444;7.758;2024-02-28T08:45:54;17.33;;;8.20;;
79570;SDS011;69034;49.444;7.758;2024-02-28T08:49:55;12.50;;;5.75;;
79570;SDS011;69034;49.444;7.758;2024-02-28T08:53:55;20.67;;;8.30;;
79570;SDS011;69034;49.444;7.758;2024-02-28T08:57:59;18.13;;;6.55;;
79570;SDS011;69034;49.444;7.758;2024-02-28T09:02:00;8.55;;;4.00;;
79570;SDS011;69034;49.444;7.758;2024-02-28T09:06:00;12.75;;;5.45;;
79570;SDS011;69034;49.444;7.758;2024-02-28T09:10:04;13.68;;;5.22;;
79570;SDS011;69034;49.444;7.758;2024-02-28T09:14:06;15.38;;;5.30;;
79570;SDS011;69034;49.444;7.758;2024-02-28T09:18:07;12.68;;;5.78;;
79570;SDS011;69034;49.444;7.758;2024-02-28T09:22:08;12.73;;;6.97;;
79570;SDS011;69034;49.444;7.758;2024-02-28T09:26:09;25.67;;;9.63;;
79570;SDS011;69034;49.444;7.758;2024-02-28T09:30:10;28.92;;;10.30;;
79570;SDS011;69034;49.444;7.758;2024-02-28T09:34:11;11.88;;;5.40;;
79570;SDS011;69034;49.444;7.758;2024-02-28T09:38:11;23.45;;;9.20;;
79570;SDS011;69034;49.444;7.758;2024-02-28T09:42:12;11.75;;;5.40;;
79570;SDS011;69034;49.444;7.758;2024-02-28T09:46:14;14.90;;;6.47;;
79570;SDS011;69034;49.444;7.758;2024-02-28T09:50:15;15.57;;;5.93;;
79570;SDS011;69034;49.444;7.758;2024-02-28T09:54:19;19.38;;;7.63;;
79570;SDS011;69034;49.444;7.758;2024-02-28T09:58:20;21.98;;;9.00;;
79570;SDS011;69034;49.444;7.758;2024-02-28T10:02:23;14.82;;;6.13;;
79570;SDS011;69034;49.444;7.758;2024-02-28T10:06:25;13.48;;;5.55;;
79570;SDS011;69034;49.444;7.758;2024-02-28T10:10:25;19.27;;;7.82;;
79570;SDS011;69034;49.444;7.758;2024-02-28T10:14:27;12.13;;;6.05;;
79570;SDS011;69034;49.444;7.758;2024-02-28T10:18:28;21.15;;;9.30;;
79570;SDS011;69034;49.444;7.758;2024-02-28T10:22:33;12.32;;;5.57;;
79570;SDS011;69034;49.444;7.758;2024-02-28T10:26:46;17.55;;;6.65;;
79570;SDS011;69034;49.444;7.758;2024-02-28T10:30:55;27.63;;;11.95;;
79570;SDS011;69034;49.444;7.758;2024-02-28T10:34:55;14.40;;;6.05;;
79570;SDS011;69034;49.444;7.758;2024-02-28T10:38:57;19.77;;;8.52;;
79570;SDS011;69034;49.444;7.758;2024-02-28T10:42:59;14.60;;;6.30;;
79570;SDS011;69034;49.444;7.758;2024-02-28T10:47:02;10.10;;;4.82;;
79570;SDS011;69034;49.444;7.758;2024-02-28T10:51:03;23.25;;;11.23;;
79570;SDS011;69034;49.444;7.758;2024-02-28T10:55:05;14.60;;;7.13;;
79570;SDS011;69034;49.444;7.758;2024-02-28T10:59:10;24.35;;;10.93;;
79570;SDS011;69034;49.444;7.758;2024-02-28T11:03:11;12.65;;;5.57;;
79570;SDS011;69034;49.444;7.758;2024-02-28T11:07:19;26.83;;;12.02;;
79570;SDS011;69034;49.444;7.758;2024-02-28T11:11:21;10.40;;;4.85;;
79570;SDS011;69034;49.444;7.758;2024-02-28T11:15:24;23.10;;;10.60;;
79570;SDS011;69034;49.444;7.758;2024-02-28T11:19:27;9.95;;;4.75;;
79570;SDS011;69034;49.444;7.758;2024-02-28T11:23:39;24.45;;;12.73;;
79570;SDS011;69034;49.444;7.758;2024-02-28T11:27:47;10.20;;;4.95;;
79570;SDS011;69034;49.444;7.758;2024-02-28T11:31:48;17.83;;;9.30;;
79570;SDS011;69034;49.444;7.758;2024-02-28T11:35:58;12.43;;;6.47;;
79570;SDS011;69034;49.444;7.758;2024-02-28T11:39:59;18.25;;;9.10;;
79570;SDS011;69034;49.444;7.758;2024-02-28T11:44:00;21.48;;;11.38;;
79570;SDS011;69034;49.444;7.758;2024-02-28T11:48:01;22.20;;;11.88;;
79570;SDS011;69034;49.444;7.758;2024-02-28T11:52:02;19.60;;;10.05;;
79570;SDS011;69034;49.444;7.758;2024-02-28T11:56:04;16.35;;;9.30;;
79570;SDS011;69034;49.444;7.758;2024-02-28T12:00:06;24.08;;;13.85;;
79570;SDS011;69034;49.444;7.758;2024-02-28T12:04:07;14.35;;;8.07;;
79570;SDS011;69034;49.444;7.758;2024-02-28T12:08:08;16.13;;;8.40;;
79570;SDS011;69034;49.444;7.758;2024-02-28T12:12:11;12.75;;;6.00;;
79570;SDS011;69034;49.444;7.758;2024-02-28T12:16:12;12.60;;;6.60;;
79570;SDS011;69034;49.444;7.758;2024-02-28T12:20:13;20.33;;;11.18;;
79570;SDS011;69034;49.444;7.758;2024-02-28T12:24:13;19.92;;;10.48;;
79570;SDS011;69034;49.444;7.758;2024-02-28T12:28:14;13.82;;;7.30;;
79570;SDS011;69034;49.444;7.758;2024-02-28T12:32:15;18.67;;;10.02;;
79570;SDS011;69034;49.444;7.758;2024-02-28T12:36:17;5.75;;;3.50;;
79570;SDS011;69034;49.444;7.758;2024-02-28T12:40:18;18.63;;;11.25;;
79570;SDS011;69034;49.444;7.758;2024-02-28T12:44:19;14.85;;;8.75;;
79570;SDS011;69034;49.444;7.758;2024-02-28T12:48:19;16.23;;;9.18;;
79570;SDS011;69034;49.444;7.758;2024-02-28T12:52:20;11.70;;;6.53;;
79570;SDS011;69034;49.444;7.758;2024-02-28T12:56:21;5.88;;;3.65;;
79570;SDS011;69034;49.444;7.758;2024-02-28T13:00:21;11.35;;;5.95;;
79570;SDS011;69034;49.444;7.758;2024-02-28T13:04:22;7.93;;;5.22;;
79570;SDS011;69034;49.444;7.758;2024-02-28T13:08:23;13.98;;;6.70;;
79570;SDS011;69034;49.444;7.758;2024-02-28T13:12:23;13.77;;;7.88;;
79570;SDS011;69034;49.444;7.758;2024-02-28T13:16:24;13.52;;;8.20;;
79570;SDS011;69034;49.444;7.758;2024-02-28T13:20:24;15.00;;;8.50;;
79570;SDS011;69034;49.444;7.758;2024-02-28T13:24:25;7.00;;;3.45;;
79570;SDS011;69034;49.444;7.758;2024-02-28T13:28:26;5.10;;;2.90;;
79570;SDS011;69034;49.444;7.758;2024-02-28T13:32:29;6.60;;;3.75;;
79570;SDS011;69034;49.444;7.758;2024-02-28T13:36:30;7.90;;;4.35;;
79570;SDS011;69034;49.444;7.758;2024-02-28T13:40:32;5.28;;;3.03;;
79570;SDS011;69034;49.444;7.758;2024-02-28T13:44:33;8.43;;;3.58;;
79570;SDS011;69034;49.444;7.758;2024-02-28T13:48:34;8.23;;;3.88;;
79570;SDS011;69034;49.444;7.758;2024-02-28T13:52:35;5.00;;;2.28;;
79570;SDS011;69034;49.444;7.758;2024-02-28T13:56:35;4.72;;;2.10;;
79570;SDS011;69034;49.444;7.758;2024-02-28T14:00:37;5.13;;;2.72;;
79570;SDS011;69034;49.444;7.758;2024-02-28T14:04:38;3.97;;;2.10;;
79570;SDS011;69034;49.444;7.758;2024-02-28T14:08:41;4.05;;;1.92;;
79570;SDS011;69034;49.444;7.758;2024-02-28T14:12:42;4.28;;;1.90;;
79570;SDS011;69034;49.444;7.758;2024-02-28T14:16:43;5.95;;;2.17;;
79570;SDS011;69034;49.444;7.758;2024-02-28T14:20:43;3.78;;;2.00;;
79570;SDS011;69034;49.444;7.758;2024-02-28T14:24:45;4.85;;;2.03;;
79570;SDS011;69034;49.444;7.758;2024-02-28T14:28:46;5.30;;;2.30;;
79570;SDS011;69034;49.444;7.758;2024-02-28T14:32:46;7.82;;;3.53;;
79570;SDS011;69034;49.444;7.758;2024-02-28T14:36:49;4.78;;;2.65;;
79570;SDS011;69034;49.444;7.758;2024-02-28T14:40:49;5.05;;;2.60;;
79570;SDS011;69034;49.444;7.758;2024-02-28T14:44:50;3.88;;;1.45;;
79570;SDS011;69034;49.444;7.758;2024-02-28T14:48:51;4.43;;;2.22;;
79570;SDS011;69034;49.444;7.758;2024-02-28T14:52:52;4.15;;;1.45;;
79570;SDS011;69034;49.444;7.758;2024-02-28T14:56:52;2.78;;;1.45;;
79570;SDS011;69034;49.444;7.758;2024-02-28T15:00:53;3.05;;;1.40;;
79570;SDS011;69034;49.444;7.758;2024-02-28T15:04:58;4.75;;;2.60;;
79570;SDS011;69034;49.444;7.758;2024-02-28T15:08:59;3.22;;;1.50;;
79570;SDS011;69034;49.444;7.758;2024-02-28T15:13:01;3.03;;;1.33;;
79570;SDS011;69034;49.444;7.758;2024-02-28T15:17:01;3.75;;;1.50;;
79570;SDS011;69034;49.444;7.758;2024-02-28T15:21:02;4.47;;;1.98;;
79570;SDS011;69034;49.444;7.758;2024-02-28T15:25:03;4.60;;;2.30;;
79570;SDS011;69034;49.444;7.758;2024-02-28T15:29:04;4.18;;;1.92;;
79570;SDS011;69034;49.444;7.758;2024-02-28T15:33:04;3.88;;;1.83;;
79570;SDS011;69034;49.444;7.758;2024-02-28T15:37:05;3.88;;;1.52;;
79570;SDS011;69034;49.444;7.758;2024-02-28T15:41:07;3.42;;;1.65;;
79570;SDS011;69034;49.444;7.758;2024-02-28T15:45:08;3.03;;;1.30;;
79570;SDS011;69034;49.444;7.758;2024-02-28T15:49:09;5.28;;;2.20;;
79570;SDS011;69034;49.444;7.758;2024-02-28T15:53:09;3.63;;;1.25;;
79570;SDS011;69034;49.444;7.758;2024-02-28T15:57:10;5.60;;;2.28;;
79570;SDS011;69034;49.444;7.758;2024-02-28T16:01:11;2.83;;;1.17;;
79570;SDS011;69034;49.444;7.758;2024-02-28T16:05:12;4.50;;;1.73;;
79570;SDS011;69034;49.444;7.758;2024-02-28T16:09:13;4.78;;;1.88;;
79570;SDS011;69034;49.444;7.758;2024-02-28T16:13:14;4.45;;;1.80;;
79570;SDS011;69034;49.444;7.758;2024-02-28T16:17:15;6.50;;;1.73;;
79570;SDS011;69034;49.444;7.758;2024-02-28T16:21:16;4.78;;;1.83;;
79570;SDS011;69034;49.444;7.758;2024-02-28T16:25:17;6.53;;;1.77;;
79570;SDS011;69034;49.444;7.758;2024-02-28T16:29:18;4.10;;;1.85;;
79570;SDS011;69034;49.444;7.758;2024-02-28T16:33:22;6.13;;;2.15;;
79570;SDS011;69034;49.444;7.758;2024-02-28T16:37:23;8.00;;;2.83;;
79570;SDS011;69034;49.444;7.758;2024-02-28T16:41:24;5.95;;;2.25;;
79570;SDS011;69034;49.444;7.758;2024-02-28T16:45:25;4.75;;;1.75;;
79570;SDS011;69034;49.444;7.758;2024-02-28T16:49:26;6.47;;;1.90;;
79570;SDS011;69034;49.444;7.758;2024-02-28T16:53:27;7.38;;;2.55;;
79570;SDS011;69034;49.444;7.758;2024-02-28T16:57:31;5.22;;;1.77;;
79570;SDS011;69034;49.444;7.758;2024-02-28T17:01:31;5.50;;;1.88;;
79570;SDS011;69034;49.444;7.758;2024-02-28T17:05:32;4.63;;;1.60;;
79570;SDS011;69034;49.444;7.758;2024-02-28T17:09:38;4.93;;;1.58;;
79570;SDS011;69034;49.444;7.758;2024-02-28T17:13:38;5.30;;;1.80;;
79570;SDS011;69034;49.444;7.758;2024-02-28T17:17:39;4.15;;;1.55;;
79570;SDS011;69034;49.444;7.758;2024-02-28T17:21:40;5.25;;;1.58;;
79570;SDS011;69034;49.444;7.758;2024-02-28T17:25:41;3.72;;;1.85;;
79570;SDS011;69034;49.444;7.758;2024-02-28T17:29:42;5.68;;;1.98;;
79570;SDS011;69034;49.444;7.758;2024-02-28T17:33:44;6.32;;;1.88;;
79570;SDS011;69034;49.444;7.758;2024-02-28T17:37:47;5.20;;;1.92;;
79570;SDS011;69034;49.444;7.758;2024-02-28T17:41:48;5.20;;;1.80;;
79570;SDS011;69034;49.444;7.758;2024-02-28T17:45:48;5.65;;;1.90;;
79570;SDS011;69034;49.444;7.758;2024-02-28T17:49:49;4.68;;;1.80;;
79570;SDS011;69034;49.444;7.758;2024-02-28T17:53:51;3.70;;;1.90;;
79570;SDS011;69034;49.444;7.758;2024-02-28T17:57:52;4.95;;;1.88;;
79570;SDS011;69034;49.444;7.758;2024-02-28T18:01:53;4.68;;;1.55;;
79570;SDS011;69034;49.444;7.758;2024-02-28T18:05:53;4.40;;;1.77;;
79570;SDS011;69034;49.444;7.758;2024-02-28T18:09:54;3.40;;;1.40;;
79570;SDS011;69034;49.444;7.758;2024-02-28T18:13:55;3.72;;;1.88;;
79570;SDS011;69034;49.444;7.758;2024-02-28T18:17:56;3.60;;;1.60;;
79570;SDS011;69034;49.444;7.758;2024-02-28T18:21:56;4.63;;;2.00;;
79570;SDS011;69034;49.444;7.758;2024-02-28T18:25:57;3.95;;;1.65;;
79570;SDS011;69034;49.444;7.758;2024-02-28T18:29:57;4.82;;;1.88;;
79570;SDS011;69034;49.444;7.758;2024-02-28T18:33:58;5.63;;;1.50;;
79570;SDS011;69034;49.444;7.758;2024-02-28T18:37:59;4.95;;;1.55;;
79570;SDS011;69034;49.444;7.758;2024-02-28T18:41:59;4.00;;;1.50;;
79570;SDS011;69034;49.444;7.758;2024-02-28T18:46:00;6.10;;;1.58;;
79570;SDS011;69034;49.444;7.758;2024-02-28T18:50:05;4.80;;;1.48;;
79570;SDS011;69034;49.444;7.758;2024-02-28T18:54:07;4.72;;;2.00;;
79570;SDS011;69034;49.444;7.758;2024-02-28T18:58:07;3.83;;;1.50;;
79570;SDS011;69034;49.444;7.758;2024-02-28T19:02:09;7.18;;;2.20;;
79570;SDS011;69034;49.444;7.758;2024-02-28T19:06:11;3.67;;;1.58;;
79570;SDS011;69034;49.444;7.758;2024-02-28T19:10:12;4.80;;;1.75;;
79570;SDS011;69034;49.444;7.758;2024-02-28T19:14:13;4.88;;;2.00;;
79570;SDS011;69034;49.444;7.758;2024-02-28T19:18:13;4.88;;;1.55;;
79570;SDS011;69034;49.444;7.758;2024-02-28T19:22:14;6.88;;;2.25;;
79570;SDS011;69034;49.444;7.758;2024-02-28T19:26:18;5.65;;;2.10;;
79570;SDS011;69034;49.444;7.758;2024-02-28T19:30:18;6.30;;;1.75;;
79570;SDS011;69034;49.444;7.758;2024-02-28T19:34:19;5.05;;;2.33;;
79570;SDS011;69034;49.444;7.758;2024-02-28T19:38:20;5.45;;;1.85;;
79570;SDS011;69034;49.444;7.758;2024-02-28T19:42:21;4.78;;;1.90;;
79570;SDS011;69034;49.444;7.758;2024-02-28T19:46:22;3.78;;;1.90;;
79570;SDS011;69034;49.444;7.758;2024-02-28T19:50:23;14.63;;;4.82;;
79570;SDS011;69034;49.444;7.758;2024-02-28T19:54:24;20.35;;;9.27;;
79570;SDS011;69034;49.444;7.758;2024-02-28T19:58:26;7.15;;;2.35;;
79570;SDS011;69034;49.444;7.758;2024-02-28T20:02:27;6.13;;;3.53;;
79570;SDS011;69034;49.444;7.758;2024-02-28T20:06:28;8.15;;;2.92;;
79570;SDS011;69034;49.444;7.758;2024-02-28T20:10:28;5.50;;;2.47;;
79570;SDS011;69034;49.444;7.758;2024-02-28T20:14:29;8.63;;;3.47;;
79570;SDS011;69034;49.444;7.758;2024-02-28T20:18:30;6.90;;;2.63;;
79570;SDS011;69034;49.444;7.758;2024-02-28T20:22:31;7.03;;;3.53;;
79570;SDS011;69034;49.444;7.758;2024-02-28T20:26:31;6.72;;;2.97;;
79570;SDS011;69034;49.444;7.758;2024-02-28T20:30:32;4.80;;;2.10;;
79570;SDS011;69034;49.444;7.758;2024-02-28T20:34:34;5.85;;;2.78;;
79570;SDS011;69034;49.444;7.758;2024-02-28T20:38:36;5.63;;;2.30;;
79570;SDS011;69034;49.444;7.758;2024-02-28T20:42:36;6.72;;;2.60;;
79570;SDS011;69034;49.444;7.758;2024-02-28T20:46:39;4.63;;;1.60;;
79570;SDS011;69034;49.444;7.758;2024-02-28T20:50:40;5.20;;;2.30;;
79570;SDS011;69034;49.444;7.758;2024-02-28T20:54:41;5.00;;;2.00;;
79570;SDS011;69034;49.444;7.758;2024-02-28T20:58:41;4.93;;;2.03;;
79570;SDS011;69034;49.444;7.758;2024-02-28T21:02:42;5.47;;;2.22;;
79570;SDS011;69034;49.444;7.758;2024-02-28T21:06:43;4.18;;;1.70;;
79570;SDS011;69034;49.444;7.758;2024-02-28T21:10:44;4.18;;;2.03;;
79570;SDS011;69034;49.444;7.758;2024-02-28T21:14:45;4.05;;;1.52;;
79570;SDS011;69034;49.444;7.758;2024-02-28T21:18:45;3.83;;;2.00;;
79570;SDS011;69034;49.444;7.758;2024-02-28T21:22:46;4.68;;;2.17;;
79570;SDS011;69034;49.444;7.758;2024-02-28T21:31:00;4.07;;;1.30;;
79570;SDS011;69034;49.444;7.758;2024-02-28T21:35:01;3.60;;;1.35;;
79570;SDS011;69034;49.444;7.758;2024-02-28T21:39:04;3.28;;;1.48;;
79570;SDS011;69034;49.444;7.758;2024-02-28T21:43:08;3.33;;;1.38;;
79570;SDS011;69034;49.444;7.758;2024-02-28T21:47:09;5.22;;;1.52;;
79570;SDS011;69034;49.444;7.758;2024-02-28T21:51:10;5.88;;;2.13;;
79570;SDS011;69034;49.444;7.758;2024-02-28T21:55:12;4.25;;;1.73;;
79570;SDS011;69034;49.444;7.758;2024-02-28T21:59:13;4.63;;;1.17;;
79570;SDS011;69034;49.444;7.758;2024-02-28T22:03:13;7.80;;;2.22;;
79570;SDS011;69034;49.444;7.758;2024-02-28T22:07:14;2.92;;;1.25;;
79570;SDS011;69034;49.444;7.758;2024-02-28T22:11:15;3.60;;;1.80;;
79570;SDS011;69034;49.444;7.758;2024-02-28T22:15:15;4.38;;;1.48;;
79570;SDS011;69034;49.444;7.758;2024-02-28T22:19:17;4.28;;;1.75;;
79570;SDS011;69034;49.444;7.758;2024-02-28T22:23:18;3.42;;;1.40;;
79570;SDS011;69034;49.444;7.758;2024-02-28T22:27:19;5.63;;;2.00;;
79570;SDS011;69034;49.444;7.758;2024-02-28T22:31:19;3.88;;;1.40;;
79570;SDS011;69034;49.444;7.758;2024-02-28T22:35:20;3.63;;;1.40;;
79570;SDS011;69034;49.444;7.758;2024-02-28T22:39:21;4.72;;;2.03;;
79570;SDS011;69034;49.444;7.758;2024-02-28T22:43:21;3.03;;;1.45;;
79570;SDS011;69034;49.444;7.758;2024-02-28T22:47:22;5.13;;;1.67;;
79570;SDS011;69034;49.444;7.758;2024-02-28T22:51:22;2.65;;;1.08;;
79570;SDS011;69034;49.444;7.758;2024-02-28T22:55:23;3.17;;;1.52;;
79570;SDS011;69034;49.444;7.758;2024-02-28T22:59:24;3.80;;;1.00;;
79570;SDS011;69034;49.444;7.758;2024-02-28T23:03:25;3.25;;;1.55;;
79570;SDS011;69034;49.444;7.758;2024-02-28T23:07:26;4.35;;;1.35;;
79570;SDS011;69034;49.444;7.758;2024-02-28T23:11:27;9.75;;;2.00;;
79570;SDS011;69034;49.444;7.758;2024-02-28T23:15:27;6.15;;;2.33;;
79570;SDS011;69034;49.444;7.758;2024-02-28T23:19:28;5.25;;;1.80;;
79570;SDS011;69034;49.444;7.758;2024-02-28T23:23:33;3.40;;;1.58;;
79570;SDS011;69034;49.444;7.758;2024-02-28T23:27:33;3.63;;;1.63;;
79570;SDS011;69034;49.444;7.758;2024-02-28T23:31:34;2.65;;;1.02;;
79570;SDS011;69034;49.444;7.758;2024-02-28T23:35:35;4.75;;;1.75;;
79570;SDS011;69034;49.444;7.758;2024-02-28T23:39:36;4.63;;;1.92;;
79570;SDS011;69034;49.444;7.758;2024-02-28T23:43:37;3.47;;;1.45;;
79570;SDS011;69034;49.444;7.758;2024-02-28T23:47:38;3.47;;;1.08;;
79570;SDS011;69034;49.444;7.758;2024-02-28T23:51:39;3.40;;;1.45;;
79570;SDS011;69034;49.444;7.758;2024-02-28T23:55:39;4.65;;;1.95;;
79570;SDS011;69034;49.444;7.758;2024-02-28T23:59:41;5.35;;;2.30;;
